Time;durP1;ratioP1;P1;durP2;ratioP2;P2;SDS_P1;SDS_P2;PMS_P1;PMS_P2;Temp;Humidity;BMP_temperature;BMP_pressure;BME280_temperature;BME280_humidity;BME280_pressure;Samples;Min_cycle;Max_cycle;Signal;HPM_P1;HPM_P2
2022/01/21 00:01:40;;;;;;;4.05;0.63;;;1.80;99.90;;;;;;5033279;28;20624;-83
2022/01/21 00:04:07;;;;;;;3.22;0.45;;;1.60;99.90;;;;;;5033481;28;20040;-84
2022/01/21 00:06:33;;;;;;;2.50;0.40;;;1.50;99.90;;;;;;5033543;28;20021;-83
2022/01/21 00:09:23;;;;;;;5.63;0.60;;;1.50;99.90;;;;;;5034653;28;20428;-83
2022/01/21 00:11:49;;;;;;;;;;;1.40;99.90;;;;;;5034996;28;20374;-83
2022/01/21 00:14:14;;;;;;;4.18;0.60;;;1.30;99.90;;;;;;5033053;28;19929;-84
2022/01/21 00:16:40;;;;;;;5.05;0.77;;;1.40;99.90;;;;;;5034374;28;20057;-83
2022/01/21 00:19:15;;;;;;;3.85;0.50;;;1.50;99.90;;;;;;5035022;28;20029;-83
2022/01/21 00:32:33;;;;;;;4.45;1.10;;;2.10;99.90;;;;;;5034469;28;20029;-84
2022/01/21 00:34:59;;;;;;;7.82;0.40;;;2.20;99.90;;;;;;5034396;28;20536;-83
2022/01/21 00:37:24;;;;;;;10.38;1.38;;;2.20;99.90;;;;;;5033165;28;20465;-84
2022/01/21 00:39:56;;;;;;;8.55;1.35;;;2.40;99.90;;;;;;5032997;28;20022;-83
2022/01/21 00:44:50;;;;;;;10.05;1.17;;;2.30;99.90;;;;;;5033899;28;20025;-83
2022/01/21 00:47:16;;;;;;;11.85;1.02;;;2.30;99.90;;;;;;5032683;28;20052;-83
2022/01/21 00:49:41;;;;;;;8.57;1.42;;;2.20;99.90;;;;;;5032722;28;20485;-83
2022/01/21 00:52:07;;;;;;;11.32;1.00;;;2.40;99.90;;;;;;5033885;28;20025;-83
2022/01/21 00:54:33;;;;;;;15.43;1.27;;;2.40;99.90;;;;;;5033905;28;20496;-83
2022/01/21 00:56:58;;;;;;;14.38;1.40;;;2.50;99.90;;;;;;5033728;28;20389;-83
2022/01/21 00:59:24;;;;;;;3.42;0.70;;;2.40;99.90;;;;;;5034008;28;20025;-83
2022/01/21 01:01:49;;;;;;;11.23;1.08;;;2.50;99.90;;;;;;5033920;28;20035;-84
2022/01/21 01:04:15;;;;;;;10.48;1.40;;;2.50;99.90;;;;;;5033914;28;20037;-83
2022/01/21 01:06:41;;;;;;;4.88;0.50;;;2.50;99.90;;;;;;5032642;28;20033;-84
2022/01/21 01:09:07;;;;;;;8.43;1.10;;;2.50;99.90;;;;;;5033615;28;20017;-83
2022/01/21 01:19:57;;;;;;;1.55;0.60;;;2.60;99.90;;;;;;5053886;28;20052;-83
2022/01/21 01:28:38;;;;;;;3.10;1.25;;;2.40;99.90;;;;;;5052738;28;20091;-83
2022/01/21 01:31:04;;;;;;;6.43;0.38;;;2.40;99.90;;;;;;5053693;28;20469;-83
2022/01/21 01:33:36;;;;;;;8.98;0.82;;;2.40;99.90;;;;;;5052193;28;20033;-83
2022/01/21 01:36:04;;;;;;;4.28;0.95;;;2.50;99.90;;;;;;5053580;28;20018;-83
2022/01/21 01:41:06;;;;;;;8.20;0.50;;;2.50;99.90;;;;;;5053555;28;20029;-83
2022/01/21 01:51:28;;;;;;;0.55;0.32;;;2.70;99.90;;;;;;5053214;28;20039;-83
2022/01/21 01:54:09;;;;;;;8.65;0.60;;;2.60;99.90;;;;;;5053314;28;20032;-83
2022/01/21 01:56:39;;;;;;;1.77;0.35;;;2.70;99.90;;;;;;5056904;28;20033;-83
2022/01/21 01:59:05;;;;;;;3.00;0.15;;;2.60;99.90;;;;;;5056834;28;20454;-83
2022/01/21 02:01:31;;;;;;;2.33;0.65;;;2.50;99.90;;;;;;5057408;28;20457;-83
2022/01/21 02:03:57;;;;;;;4.72;0.30;;;2.40;99.90;;;;;;5056929;28;20029;-82
2022/01/21 02:06:23;;;;;;;5.30;0.73;;;2.50;99.90;;;;;;5057269;28;20017;-83
2022/01/21 02:08:48;;;;;;;6.57;1.20;;;2.40;99.90;;;;;;5056933;28;20107;-82
2022/01/21 02:11:14;;;;;;;1.77;0.40;;;2.40;99.90;;;;;;5056763;28;20025;-83
2022/01/21 02:13:46;;;;;;;5.10;0.90;;;2.30;99.90;;;;;;5055130;28;20063;-82
2022/01/21 02:21:41;;;;;;;8.48;1.48;;;2.70;99.90;;;;;;5056668;28;20040;-82
2022/01/21 02:24:14;;;;;;;8.93;1.27;;;2.70;99.90;;;;;;5056618;28;20368;-82
2022/01/21 02:26:41;;;;;;;3.65;0.93;;;2.70;99.90;;;;;;5056629;28;20024;-82
2022/01/21 02:29:08;;;;;;;3.22;0.40;;;2.90;99.90;;;;;;5056131;28;20025;-82
2022/01/21 02:31:35;;;;;;;5.13;0.82;;;2.90;93.60;;;;;;5056445;28;20025;-83
2022/01/21 02:34:01;;;;;;;3.42;0.90;;;3.10;99.90;;;;;;5054672;28;20078;-83
2022/01/21 02:36:27;;;;;;;5.90;0.20;;;3.00;99.90;;;;;;5054576;28;20552;-83
2022/01/21 02:38:53;;;;;;;1.52;0.93;;;3.00;99.90;;;;;;5054867;28;20025;-83
2022/01/21 02:41:20;;;;;;;2.83;0.65;;;3.20;99.90;;;;;;5056098;28;20025;-83
2022/01/21 02:43:45;;;;;;;3.25;0.63;;;3.20;99.90;;;;;;5054633;28;20068;-83
2022/01/21 02:46:11;;;;;;;1.20;0.35;;;3.20;99.90;;;;;;5054703;28;20036;-83
2022/01/21 02:48:38;;;;;;;5.32;0.65;;;3.20;99.90;;;;;;5056152;28;20385;-83
2022/01/21 02:51:09;;;;;;;10.68;0.40;;;3.10;99.90;;;;;;5054767;28;20037;-83
2022/01/21 02:54:03;;;;;;;3.80;0.30;;;3.10;99.90;;;;;;5054485;28;20450;-83
2022/01/21 02:56:24;;;;;;;0.77;0.50;;;3.00;99.90;;;;;;5055721;28;20171;-83
2022/01/21 02:58:51;;;;;;;1.65;0.20;;;2.90;99.90;;;;;;5054559;28;20087;-83
2022/01/21 03:01:18;;;;;;;4.90;0.50;;;2.80;99.90;;;;;;5054267;28;20528;-83
2022/01/21 03:07:15;;;;;;;5.75;0.35;;;2.70;99.90;;;;;;5054530;28;20551;-83
2022/01/21 03:09:41;;;;;;;2.70;0.40;;;2.60;99.90;;;;;;5055236;28;20043;-83
2022/01/21 03:12:50;;;;;;;9.30;0.68;;;2.50;99.90;;;;;;5055328;28;20025;-83
2022/01/21 03:15:16;;;;;;;6.72;0.68;;;2.40;99.90;;;;;;5054213;28;20052;-82
2022/01/21 03:17:41;;;;;;;3.88;0.68;;;2.30;99.90;;;;;;5055535;28;20042;-83
2022/01/21 03:20:07;;;;;;;9.27;0.60;;;2.30;99.90;;;;;;5055577;28;20017;-83
2022/01/21 03:22:33;;;;;;;6.03;0.70;;;2.30;99.90;;;;;;5054513;28;20731;-84
2022/01/21 03:24:59;;;;;;;7.30;0.75;;;2.20;99.90;;;;;;5055527;28;20032;-83
2022/01/21 03:27:24;;;;;;;7.10;0.70;;;2.20;99.90;;;;;;5055077;28;20017;-82
2022/01/21 03:29:50;;;;;;;7.35;0.90;;;2.10;99.90;;;;;;5054018;28;20017;-82
2022/01/21 03:32:15;;;;;;;7.32;0.50;;;2.00;99.90;;;;;;5055022;28;20036;-83
2022/01/21 03:34:41;;;;;;;4.90;0.90;;;1.90;99.90;;;;;;5054754;28;20104;-83
2022/01/21 03:37:33;;;;;;;4.45;0.70;;;1.80;99.90;;;;;;5054957;28;20115;-83
2022/01/21 03:39:58;;;;;;;8.05;1.80;;;1.80;99.90;;;;;;5034437;28;20034;-83
2022/01/21 03:42:24;;;;;;;7.60;0.90;;;1.70;99.90;;;;;;5041141;28;20025;-83
2022/01/21 03:45:06;;;;;;;5.75;0.85;;;1.90;99.90;;;;;;5053515;28;20040;-83
2022/01/21 03:47:32;;;;;;;13.35;1.65;;;1.90;99.90;;;;;;5053555;28;20473;-83
2022/01/21 03:50:18;;;;;;;9.93;0.93;;;2.10;99.90;;;;;;5054953;28;20028;-83
2022/01/21 03:52:43;;;;;;;8.43;0.90;;;2.10;99.90;;;;;;5054329;28;20025;-83
2022/01/21 03:55:09;;;;;;;7.72;1.30;;;2.10;99.90;;;;;;5053579;28;20021;-83
2022/01/21 03:57:34;;;;;;;4.00;0.45;;;2.10;99.90;;;;;;5054085;28;20021;-83
2022/01/21 04:00:00;;;;;;;5.65;1.05;;;2.20;99.90;;;;;;5053996;28;20079;-82
2022/01/21 04:02:25;;;;;;;4.82;0.75;;;2.40;99.90;;;;;;5053506;28;20025;-83
2022/01/21 04:04:51;;;;;;;4.63;1.00;;;2.40;99.90;;;;;;5053653;28;20025;-82
2022/01/21 04:07:16;;;;;;;6.25;0.73;;;2.50;99.90;;;;;;5054867;28;20404;-82
2022/01/21 04:09:47;;;;;;;8.07;0.98;;;2.40;99.90;;;;;;5054682;28;20029;-83
2022/01/21 04:12:13;;;;;;;;;;;2.40;99.90;;;;;;5055330;28;20018;-83
2022/01/21 04:14:38;;;;;;;12.40;1.25;;;2.30;99.90;;;;;;5053068;28;19924;-83
2022/01/21 04:17:05;;;;;;;5.57;0.75;;;2.30;99.90;;;;;;5054466;28;20045;-83
2022/01/21 04:19:30;;;;;;;6.40;1.30;;;2.30;99.90;;;;;;5054488;28;20100;-82
2022/01/21 04:21:56;;;;;;;6.75;0.55;;;2.30;99.90;;;;;;5054610;28;20029;-82
2022/01/21 04:24:21;;;;;;;4.35;0.80;;;2.30;99.90;;;;;;5054325;28;20465;-82
2022/01/21 04:26:47;;;;;;;5.38;0.90;;;2.10;99.90;;;;;;5052974;28;20028;-83
2022/01/21 04:29:13;;;;;;;6.65;0.85;;;2.10;99.90;;;;;;5054593;28;20021;-82
2022/01/21 04:31:38;;;;;;;6.45;0.50;;;2.00;99.90;;;;;;5053031;28;20029;-82
2022/01/21 04:34:05;;;;;;;4.88;0.70;;;1.90;99.90;;;;;;5054010;28;20085;-83
2022/01/21 04:36:31;;;;;;;9.98;0.98;;;2.00;99.90;;;;;;5054220;28;20035;-82
2022/01/21 04:38:59;;;;;;;5.97;0.65;;;2.10;99.90;;;;;;5054338;28;20021;-82
2022/01/21 04:49:27;;;;;;;7.93;0.47;;;2.40;99.90;;;;;;5054032;28;20086;-82
2022/01/21 04:52:02;;;;;;;7.28;0.70;;;2.30;99.90;;;;;;5054349;28;20415;-82
2022/01/21 04:54:29;;;;;;;1.58;0.20;;;2.20;99.90;;;;;;5053924;28;20072;-83
2022/01/21 04:56:55;;;;;;;2.35;0.90;;;2.30;99.90;;;;;;5053215;28;20029;-82
2022/01/21 04:59:21;;;;;;;6.80;0.63;;;2.50;99.90;;;;;;5053603;28;20028;-82
2022/01/21 05:01:47;;;;;;;3.95;0.52;;;2.60;99.90;;;;;;5054298;28;20025;-82
2022/01/21 05:04:12;;;;;;;3.15;0.57;;;2.90;99.90;;;;;;5054512;28;20036;-82
2022/01/21 05:06:39;;;;;;;4.00;0.77;;;3.20;99.90;;;;;;5053988;28;20437;-83
2022/01/21 05:09:05;;;;;;;2.55;0.43;;;3.30;99.90;;;;;;5053863;28;20109;-83
2022/01/21 05:11:35;;;;;;;1.88;0.47;;;3.30;99.90;;;;;;5052753;28;20477;-83
2022/01/21 05:14:13;;;;;;;3.55;0.50;;;3.20;99.90;;;;;;5053629;28;20476;-83
2022/01/21 05:16:45;;;;;;;3.22;0.63;;;3.00;99.90;;;;;;5052526;28;20041;-83
2022/01/21 05:19:15;;;;;;;4.63;0.50;;;3.00;99.90;;;;;;5054125;28;20102;-83
2022/01/21 05:21:44;;;;;;;;;;;3.20;99.90;;;;;;5052854;28;20060;-83
2022/01/21 05:24:11;;;;;;;3.08;0.77;;;3.40;99.90;;;;;;5053525;28;19916;-83
2022/01/21 05:26:39;;;;;;;3.78;0.40;;;3.50;99.90;;;;;;5054132;28;20033;-83
2022/01/21 05:29:06;;;;;;;8.05;0.77;;;3.50;99.90;;;;;;5054318;28;20017;-83
2022/01/21 05:31:32;;;;;;;7.38;0.60;;;3.30;99.90;;;;;;5057591;28;20082;-83
2022/01/21 05:33:58;;;;;;;3.97;0.60;;;3.30;99.90;;;;;;5056304;28;20059;-83
2022/01/21 05:36:24;;;;;;;3.13;0.47;;;3.20;99.90;;;;;;5057720;28;20028;-83
2022/01/21 05:38:49;;;;;;;11.48;0.85;;;3.00;99.90;;;;;;5055990;28;20029;-83
2022/01/21 05:41:18;;;;;;;5.97;0.50;;;2.90;99.90;;;;;;5055940;28;20035;-83
2022/01/21 05:43:46;;;;;;;5.30;0.65;;;2.80;99.90;;;;;;5057596;28;20020;-83
2022/01/21 05:46:23;;;;;;;6.03;0.85;;;2.80;99.90;;;;;;5056102;28;20048;-81
2022/01/21 05:48:49;;;;;;;8.65;0.70;;;2.80;99.90;;;;;;5057110;28;20021;-84
2022/01/21 05:51:16;;;;;;;7.47;0.90;;;2.80;99.90;;;;;;5056172;28;20390;-82
2022/01/21 05:53:42;;;;;;;6.10;1.10;;;2.70;99.90;;;;;;5050226;28;20033;-83
2022/01/21 05:56:08;;;;;;;9.45;1.00;;;2.70;99.90;;;;;;5057167;28;20435;-83
2022/01/21 05:58:33;;;;;;;9.38;1.60;;;2.70;99.90;;;;;;5056034;28;20021;-83
2022/01/21 06:00:59;;;;;;;12.40;1.20;;;3.00;99.90;;;;;;5055642;28;20024;-82
2022/01/21 06:03:24;;;;;;;7.68;0.77;;;3.10;99.90;;;;;;5047915;28;20026;-83
2022/01/21 06:05:50;;;;;;;4.35;0.60;;;3.30;99.90;;;;;;5036037;28;20017;-83
2022/01/21 06:08:16;;;;;;;2.95;0.60;;;3.30;99.90;;;;;;5043844;28;20026;-83
2022/01/21 06:10:41;;;;;;;3.50;0.75;;;3.60;99.90;;;;;;5036645;28;20025;-83
2022/01/21 06:13:07;;;;;;;1.27;0.38;;;3.60;99.90;;;;;;5035073;28;20049;-84
2022/01/21 06:15:34;;;;;;;10.10;0.77;;;3.70;99.90;;;;;;5035621;28;20079;-80
2022/01/21 06:17:59;;;;;;;4.75;0.90;;;3.80;99.90;;;;;;5036951;28;20018;-81
2022/01/21 06:20:26;;;;;;;9.10;1.83;;;3.70;99.90;;;;;;5036622;28;20470;-81
2022/01/21 06:22:51;;;;;;;8.75;1.02;;;3.70;99.90;;;;;;5049615;28;20021;-81
2022/01/21 06:25:18;;;;;;;3.88;0.98;;;3.70;99.90;;;;;;5056184;28;20032;-81
2022/01/21 06:27:45;;;;;;;7.97;0.90;;;3.60;99.90;;;;;;5056379;28;20029;-81
2022/01/21 06:30:11;;;;;;;6.30;0.68;;;3.40;99.90;;;;;;5056531;28;20021;-81
2022/01/21 06:32:37;;;;;;;7.07;1.10;;;3.40;99.90;;;;;;5054037;28;20025;-81
2022/01/21 06:35:02;;;;;;;7.88;1.23;;;3.40;99.90;;;;;;5053596;28;20033;-81
2022/01/21 06:37:28;;;;;;;8.73;0.93;;;3.50;99.90;;;;;;5052669;28;20029;-81
2022/01/21 06:39:54;;;;;;;7.82;1.65;;;3.40;99.90;;;;;;5053637;28;20025;-81
2022/01/21 06:42:23;;;;;;;12.00;1.98;;;3.20;99.90;;;;;;5052612;28;20025;-81
2022/01/21 06:44:49;;;;;;;10.40;1.63;;;3.10;99.90;;;;;;5053722;28;20496;-81
2022/01/21 06:47:14;;;;;;;17.58;2.15;;;2.90;99.90;;;;;;5053450;28;20025;-81
2022/01/21 06:49:40;;;;;;;7.75;0.85;;;2.90;99.90;;;;;;5053362;28;20110;-81
2022/01/21 06:52:06;;;;;;;8.45;2.20;;;2.70;99.90;;;;;;5052190;28;20140;-80
2022/01/21 06:54:32;;;;;;;10.35;2.60;;;2.60;99.90;;;;;;5052021;28;20510;-80
2022/01/21 06:56:58;;;;;;;10.10;2.63;;;2.70;99.90;;;;;;5052194;28;20033;-81
2022/01/21 06:59:23;;;;;;;7.88;0.90;;;2.60;99.90;;;;;;5053325;28;20443;-81
2022/01/21 07:01:49;;;;;;;11.73;2.35;;;2.70;99.90;;;;;;5053164;28;20036;-81
2022/01/21 07:04:14;;;;;;;10.02;1.55;;;2.60;99.90;;;;;;5052833;28;20103;-80
2022/01/21 07:06:40;;;;;;;6.88;1.10;;;2.80;99.90;;;;;;5053254;28;20389;-81
2022/01/21 07:09:05;;;;;;;15.15;2.13;;;2.90;99.90;;;;;;5052863;28;20388;-81
2022/01/21 07:11:31;;;;;;;15.07;2.72;;;3.00;99.90;;;;;;5052162;28;20031;-81
2022/01/21 07:13:57;;;;;;;9.02;1.80;;;3.10;99.90;;;;;;5053895;28;20052;-81
2022/01/21 07:16:22;;;;;;;15.30;1.58;;;3.30;99.90;;;;;;5053277;28;20025;-81
2022/01/21 07:18:49;;;;;;;9.18;1.05;;;3.40;99.90;;;;;;5035414;28;20026;-81
2022/01/21 07:21:14;;;;;;;5.05;0.70;;;3.50;99.90;;;;;;5036998;28;20057;-81
2022/01/21 07:23:40;;;;;;;3.38;0.55;;;3.80;99.90;;;;;;5045500;28;20063;-81
2022/01/21 07:26:05;;;;;;;7.75;1.10;;;4.30;99.90;;;;;;5051558;28;20269;-81
2022/01/21 07:28:34;;;;;;;12.38;2.50;;;4.30;99.90;;;;;;5054792;28;20031;-81
2022/01/21 07:31:00;;;;;;;12.02;1.27;;;4.20;99.90;;;;;;5045726;28;20021;-80
2022/01/21 07:33:26;;;;;;;12.10;1.75;;;4.20;99.90;;;;;;5055058;28;20031;-81
2022/01/21 07:35:51;;;;;;;9.18;1.50;;;4.10;99.90;;;;;;5053617;28;20079;-81
2022/01/21 07:38:17;;;;;;;7.55;1.33;;;4.10;99.90;;;;;;5034012;28;20017;-81
2022/01/21 07:40:42;;;;;;;9.13;1.70;;;3.90;99.90;;;;;;5038112;28;20104;-81
2022/01/21 07:43:08;;;;;;;12.50;1.40;;;3.90;99.90;;;;;;5055104;28;20075;-81
2022/01/21 07:45:34;;;;;;;10.02;2.28;;;3.90;99.90;;;;;;5036714;28;20083;-81
2022/01/21 07:48:00;;;;;;;12.60;1.42;;;3.90;99.90;;;;;;5043676;28;20532;-81
2022/01/21 07:50:26;;;;;;;16.55;3.17;;;4.00;99.90;;;;;;5036586;28;20303;-81
2022/01/21 07:52:51;;;;;;;19.40;5.38;;;3.90;99.90;;;;;;5034831;28;20017;-81
2022/01/21 07:55:17;;;;;;;9.00;2.53;;;3.90;99.90;;;;;;5045029;28;20312;-81
2022/01/21 07:57:43;;;;;;;15.15;2.22;;;4.00;99.90;;;;;;5034800;28;20436;-80
2022/01/21 08:00:09;;;;;;;10.05;2.10;;;3.80;99.90;;;;;;5033181;28;20049;-80
2022/01/21 08:02:35;;;;;;;15.02;1.55;;;3.70;99.90;;;;;;5032896;28;20075;-80
2022/01/21 08:05:02;;;;;;;12.90;1.65;;;3.70;99.90;;;;;;5033892;28;20025;-80
2022/01/21 08:07:28;;;;;;;10.27;1.00;;;3.70;99.90;;;;;;5034349;28;20022;-81
2022/01/21 08:09:54;;;;;;;7.28;1.27;;;3.80;99.90;;;;;;5033851;28;20021;-80
2022/01/21 08:12:19;;;;;;;9.35;1.58;;;4.00;99.90;;;;;;5038450;28;20400;-81
2022/01/21 08:14:45;;;;;;;19.52;2.00;;;4.00;99.90;;;;;;5049931;28;20053;-81
2022/01/21 08:17:12;;;;;;;10.02;1.58;;;4.20;99.90;;;;;;5065252;28;20124;-80
2022/01/21 08:19:37;;;;;;;17.73;2.75;;;4.20;99.90;;;;;;5061232;28;20159;-80
2022/01/21 08:22:03;;;;;;;14.35;2.58;;;4.30;99.90;;;;;;5051129;28;20100;-81
2022/01/21 08:24:29;;;;;;;8.00;1.45;;;4.40;99.90;;;;;;5049333;28;20116;-80
2022/01/21 08:26:54;;;;;;;19.33;2.60;;;4.50;99.90;;;;;;5050644;28;20594;-80
2022/01/21 08:29:20;;;;;;;11.10;2.17;;;4.70;99.90;;;;;;5043265;28;20018;-80
2022/01/21 08:31:46;;;;;;;10.60;2.17;;;4.80;99.90;;;;;;5044096;28;20487;-81
2022/01/21 08:34:15;;;;;;;6.03;1.25;;;4.80;99.90;;;;;;5051248;28;20029;-84
2022/01/21 08:36:41;;;;;;;5.90;0.93;;;5.00;99.90;;;;;;5049600;28;20033;-84
2022/01/21 08:39:07;;;;;;;19.75;1.65;;;5.00;99.90;;;;;;5050885;28;20393;-84
2022/01/21 08:41:32;;;;;;;15.93;1.60;;;5.10;99.90;;;;;;5049893;28;20487;-84
2022/01/21 08:43:58;;;;;;;13.05;2.17;;;6.20;99.90;;;;;;5049450;28;20017;-84
2022/01/21 08:46:24;;;;;;;6.60;1.35;;;6.60;99.90;;;;;;5045762;28;20123;-84
2022/01/21 08:48:50;;;;;;;12.30;2.25;;;6.20;99.90;;;;;;5049447;28;20060;-84
2022/01/21 08:51:25;;;;;;;13.63;2.05;;;7.10;99.90;;;;;;5049351;28;20104;-83
2022/01/21 08:53:51;;;;;;;13.45;1.27;;;9.10;99.90;;;;;;5047522;28;20033;-83
2022/01/21 08:56:18;;;;;;;10.80;1.33;;;10.70;1.00;;;;;;5048882;28;20108;-84
2022/01/21 08:58:45;;;;;;;9.27;1.25;;;9.80;1.00;;;;;;5049251;28;20029;-83
2022/01/21 09:01:12;;;;;;;11.60;2.05;;;8.20;1.00;;;;;;5049200;28;20056;-83
2022/01/21 09:03:39;;;;;;;13.90;2.28;;;7.70;15.50;;;;;;5048776;28;20037;-84
2022/01/21 09:06:05;;;;;;;13.18;1.52;;;7.30;99.90;;;;;;5052749;28;20021;-84
2022/01/21 09:08:31;;;;;;;13.45;1.90;;;7.00;99.90;;;;;;5054757;28;20025;-84
2022/01/21 09:11:00;;;;;;;16.20;1.77;;;6.80;99.90;;;;;;5053261;28;20032;-83
2022/01/21 09:13:28;;;;;;;4.75;0.88;;;6.70;99.90;;;;;;5052590;28;20114;-84
2022/01/21 09:15:58;;;;;;;15.40;1.95;;;6.60;99.90;;;;;;5053768;28;20021;-83
2022/01/21 09:18:25;;;;;;;8.85;1.08;;;6.70;99.90;;;;;;5053385;28;20032;-84
2022/01/21 09:20:51;;;;;;;8.82;1.10;;;6.70;99.90;;;;;;5054942;28;20550;-84
2022/01/21 09:23:16;;;;;;;6.95;1.40;;;6.70;99.90;;;;;;5055051;28;20072;-84
2022/01/21 09:25:42;;;;;;;12.65;1.15;;;6.90;99.90;;;;;;5053559;28;20111;-83
2022/01/21 09:28:08;;;;;;;1.40;0.40;;;7.20;99.90;;;;;;5053396;28;20384;-84
2022/01/21 09:30:34;;;;;;;8.60;1.23;;;7.40;99.90;;;;;;5053170;28;20112;-84
2022/01/21 09:32:59;;;;;;;7.75;1.40;;;7.20;99.90;;;;;;5054040;28;20168;-84
2022/01/21 09:35:25;;;;;;;8.35;1.45;;;7.00;99.90;;;;;;5052979;28;20495;-84
2022/01/21 09:37:51;;;;;;;6.95;1.20;;;6.80;99.90;;;;;;5052885;28;20333;-84
2022/01/21 09:40:17;;;;;;;9.30;1.33;;;7.20;99.90;;;;;;5053250;28;20025;-84
2022/01/21 09:42:45;;;;;;;10.23;1.40;;;7.60;99.90;;;;;;5052677;28;20124;-84
2022/01/21 09:45:13;;;;;;;8.35;1.25;;;7.80;99.90;;;;;;5054435;28;20037;-84
2022/01/21 09:47:51;;;;;;;5.47;0.95;;;8.00;99.90;;;;;;5052551;28;20503;-84
2022/01/21 09:50:18;;;;;;;3.13;0.95;;;8.00;99.90;;;;;;5052797;28;20499;-84
2022/01/21 09:52:49;;;;;;;4.40;0.70;;;7.90;99.90;;;;;;5052657;28;20021;-84
2022/01/21 09:55:17;;;;;;;;;;;7.90;99.90;;;;;;5052663;28;20033;-84
2022/01/21 09:57:47;;;;;;;2.60;0.70;;;7.80;99.90;;;;;;5052765;28;19920;-84
2022/01/21 10:00:13;;;;;;;;;;;7.80;99.90;;;;;;5054330;28;20400;-84
2022/01/21 10:02:40;;;;;;;11.38;1.42;;;7.80;99.90;;;;;;5052464;28;19905;-84
2022/01/21 10:05:06;;;;;;;9.50;1.30;;;7.70;99.90;;;;;;5054393;28;20017;-83
2022/01/21 10:07:34;;;;;;;9.32;0.70;;;7.70;99.90;;;;;;5052827;28;20029;-84
2022/01/21 10:10:06;;;;;;;7.75;1.05;;;7.80;99.90;;;;;;5052700;28;20021;-84
2022/01/21 10:12:32;;;;;;;10.98;1.70;;;7.70;99.90;;;;;;5054368;28;20025;-84
2022/01/21 10:14:57;;;;;;;6.55;1.60;;;7.70;99.90;;;;;;5052228;28;20398;-84
2022/01/21 10:17:23;;;;;;;7.80;2.00;;;7.60;99.90;;;;;;5052601;28;20543;-84
2022/01/21 10:19:51;;;;;;;10.40;1.60;;;7.50;99.90;;;;;;5052278;28;20029;-84
2022/01/21 10:22:21;;;;;;;9.57;1.40;;;7.40;99.90;;;;;;5052725;28;20025;-84
2022/01/21 10:25:00;;;;;;;13.00;1.98;;;7.40;99.90;;;;;;5052548;28;20029;-84
2022/01/21 10:27:32;;;;;;;12.38;1.65;;;7.40;99.90;;;;;;5052581;28;20128;-84
2022/01/21 10:29:58;;;;;;;12.85;1.73;;;7.80;99.90;;;;;;5052507;28;20040;-84
2022/01/21 10:32:35;;;;;;;5.00;1.00;;;8.50;99.90;;;;;;5052563;28;20029;-84
2022/01/21 10:35:02;;;;;;;8.45;1.65;;;8.80;82.10;;;;;;5032629;28;20326;-84
2022/01/21 10:37:35;;;;;;;13.80;1.65;;;8.60;93.20;;;;;;5047932;28;20404;-84
2022/01/21 10:40:08;;;;;;;17.83;1.65;;;8.40;99.90;;;;;;5052375;28;20392;-84
2022/01/21 10:42:33;;;;;;;10.18;1.25;;;8.20;99.90;;;;;;5065944;28;20493;-84
2022/01/21 10:45:00;;;;;;;5.40;1.00;;;8.20;99.90;;;;;;5032507;28;20072;-84
2022/01/21 10:47:46;;;;;;;2.83;0.65;;;8.10;92.00;;;;;;5051167;28;20044;-84
2022/01/21 10:50:20;;;;;;;10.27;0.88;;;8.10;99.90;;;;;;5053211;28;20029;-84
2022/01/21 10:52:52;;;;;;;5.70;0.85;;;7.80;99.90;;;;;;5051869;28;20025;-84
2022/01/21 10:55:31;;;;;;;7.03;1.00;;;7.80;99.90;;;;;;5051855;28;20025;-84
2022/01/21 10:58:13;;;;;;;9.60;1.08;;;7.80;99.90;;;;;;5032635;28;20041;-84
2022/01/21 11:01:05;;;;;;;7.90;1.67;;;8.00;99.90;;;;;;5033874;28;20032;-84
2022/01/21 11:03:31;;;;;;;5.00;1.10;;;8.00;99.90;;;;;;5051770;28;20026;-84
2022/01/21 11:06:18;;;;;;;3.95;0.80;;;8.20;99.90;;;;;;5051939;28;20086;-84
2022/01/21 11:08:43;;;;;;;6.70;2.13;;;8.10;91.60;;;;;;5051523;28;20036;-84
2022/01/21 11:11:09;;;;;;;6.38;1.23;;;8.20;96.30;;;;;;5051870;28;20028;-84
2022/01/21 11:13:37;;;;;;;6.78;0.90;;;8.30;50.80;;;;;;5051135;28;20535;-84
2022/01/21 11:16:10;;;;;;;9.85;0.90;;;8.30;70.50;;;;;;5053110;28;20076;-84
2022/01/21 11:19:05;;;;;;;6.45;0.77;;;8.30;70.20;;;;;;5052798;28;20032;-83
2022/01/21 11:21:43;;;;;;;8.80;1.00;;;8.40;55.40;;;;;;5055549;28;20021;-83
2022/01/21 11:24:10;;;;;;;5.05;0.82;;;8.40;51.40;;;;;;5055330;28;20090;-84
2022/01/21 11:26:39;;;;;;;4.68;0.85;;;8.20;62.30;;;;;;5045547;28;20061;-84
2022/01/21 11:29:05;;;;;;;14.13;1.35;;;8.20;79.80;;;;;;5050953;28;20028;-83
2022/01/21 11:31:32;;;;;;;7.30;1.42;;;8.50;96.50;;;;;;5051236;28;20029;-84
2022/01/21 11:33:58;;;;;;;12.65;1.33;;;8.60;40.10;;;;;;5052444;28;20056;-84
2022/01/21 11:36:27;;;;;;;8.88;1.52;;;8.60;33.20;;;;;;5051571;28;20063;-83
2022/01/21 11:38:55;;;;;;;7.65;1.95;;;8.50;30.50;;;;;;5036355;28;20539;-84
2022/01/21 11:41:24;;;;;;;8.00;1.38;;;8.40;40.80;;;;;;5031360;28;20389;-84
2022/01/21 11:43:53;;;;;;;8.23;1.60;;;8.50;64.60;;;;;;5044619;28;20384;-84
2022/01/21 11:49:04;;;;;;;6.35;0.98;;;8.80;7.40;;;;;;5053375;28;20025;-84
2022/01/21 11:51:32;;;;;;;7.82;1.20;;;8.90;7.60;;;;;;5049691;28;20071;-83
2022/01/21 11:53:58;;;;;;;13.68;2.05;;;9.00;3.20;;;;;;5040067;28;20061;-83
2022/01/21 11:56:46;;;;;;;9.38;2.03;;;9.00;1.00;;;;;;5043446;28;20028;-84
2022/01/21 11:59:40;;;;;;;10.57;1.40;;;9.00;1.00;;;;;;5046394;28;20032;-84
2022/01/21 12:02:19;;;;;;;10.75;1.67;;;9.00;1.00;;;;;;5045277;28;20029;-84
2022/01/21 12:05:07;;;;;;;12.93;1.63;;;9.10;1.00;;;;;;5053320;28;20075;-84
2022/01/21 12:07:44;;;;;;;14.13;1.70;;;8.90;1.00;;;;;;5053678;28;20053;-84
2022/01/21 12:10:22;;;;;;;19.52;2.05;;;8.70;1.00;;;;;;5047237;28;20052;-85
2022/01/21 12:12:56;;;;;;;7.28;1.10;;;8.60;1.00;;;;;;5077247;28;20043;-85
2022/01/21 12:20:55;;;;;;;15.15;1.63;;;8.60;21.90;;;;;;5051454;28;20123;-84
2022/01/21 12:23:25;;;;;;;19.13;1.70;;;8.50;11.50;;;;;;5049635;28;20020;-84
2022/01/21 12:26:19;;;;;;;12.57;1.35;;;8.30;31.70;;;;;;5033062;28;20384;-84
2022/01/21 12:28:51;;;;;;;27.15;2.10;;;8.20;31.40;;;;;;5032364;28;20056;-84
2022/01/21 12:31:19;;;;;;;10.07;1.48;;;8.10;32.70;;;;;;5037755;28;20059;-84
2022/01/21 12:36:18;;;;;;;8.98;1.88;;;8.00;57.20;;;;;;5038288;28;20044;-85
2022/01/21 12:41:17;;;;;;;6.93;1.23;;;7.90;78.90;;;;;;5036111;28;20120;-84
2022/01/21 12:43:56;;;;;;;4.70;1.10;;;7.90;95.30;;;;;;5032817;28;20029;-84
2022/01/21 12:46:31;;;;;;;11.35;2.20;;;7.80;97.30;;;;;;5029846;28;20120;-85
2022/01/21 12:48:58;;;;;;;5.78;1.30;;;7.80;98.90;;;;;;5031421;28;20060;-84
2022/01/21 12:56:48;;;;;;;6.15;1.23;;;7.80;99.90;;;;;;5030877;28;20120;-85
2022/01/21 12:59:25;;;;;;;11.60;1.70;;;7.70;99.90;;;;;;5041058;28;20492;-85
2022/01/21 13:01:52;;;;;;;15.27;1.60;;;7.70;99.90;;;;;;5048095;28;20033;-85
2022/01/21 13:04:33;;;;;;;9.88;1.58;;;7.60;99.90;;;;;;5031692;28;20119;-84
2022/01/21 13:07:25;;;;;;;12.52;1.40;;;7.60;99.90;;;;;;5048251;28;20032;-85
2022/01/21 13:10:12;;;;;;;6.82;1.73;;;7.60;99.90;;;;;;5049300;28;20512;-85
2022/01/21 13:13:16;;;;;;;14.18;1.60;;;7.50;99.90;;;;;;5045795;28;20489;-85
2022/01/21 13:15:55;;;;;;;14.50;1.75;;;7.60;99.90;;;;;;5049856;28;20099;-84
2022/01/21 13:18:24;;;;;;;11.73;1.67;;;7.60;99.90;;;;;;5049745;28;20082;-84
2022/01/21 13:20:52;;;;;;;13.70;1.90;;;7.70;99.90;;;;;;5049798;28;20070;-83
2022/01/21 13:23:45;;;;;;;13.63;2.03;;;7.70;99.90;;;;;;5048932;28;20064;-84
2022/01/21 13:26:16;;;;;;;12.25;1.45;;;7.80;99.90;;;;;;5048198;28;20029;-81
2022/01/21 13:29:00;;;;;;;10.60;1.83;;;7.80;99.90;;;;;;5039789;28;20029;-81
2022/01/21 13:31:28;;;;;;;11.88;1.67;;;7.70;99.90;;;;;;5029870;28;20036;-82
2022/01/21 13:34:11;;;;;;;14.70;2.25;;;7.70;99.90;;;;;;5034040;28;20028;-80
2022/01/21 13:36:41;;;;;;;6.47;1.40;;;7.80;99.90;;;;;;5049443;28;20333;-83
2022/01/21 13:39:11;;;;;;;;;;;7.70;99.90;;;;;;5048536;28;20025;-82
2022/01/21 13:41:58;;;;;;;12.57;3.67;;;7.80;99.90;;;;;;5051458;28;19963;-82
2022/01/21 13:44:38;;;;;;;13.93;2.95;;;7.90;99.90;;;;;;5052172;28;20499;-82
2022/01/21 13:47:24;;;;;;;11.88;2.88;;;8.00;99.90;;;;;;5052453;28;20021;-81
2022/01/21 13:49:50;;;;;;;18.05;3.00;;;7.90;99.90;;;;;;5049453;28;20487;-82
2022/01/21 13:52:15;;;;;;;13.35;2.53;;;7.90;99.90;;;;;;5051735;28;20420;-81
2022/01/21 13:54:46;;;;;;;18.02;2.20;;;8.00;99.90;;;;;;5053086;28;20032;-82
2022/01/21 13:57:13;;;;;;;14.50;4.30;;;8.00;99.90;;;;;;5052061;28;20022;-82
2022/01/21 13:59:43;;;;;;;26.73;5.85;;;8.10;99.90;;;;;;5052894;28;20029;-82
2022/01/21 14:02:10;;;;;;;;;;;8.00;99.90;;;;;;5053497;28;20618;-82
2022/01/21 14:04:36;;;;;;;23.20;6.70;;;8.00;99.90;;;;;;5052949;28;20308;-82
2022/01/21 14:07:03;;;;;;;13.18;4.13;;;7.90;99.90;;;;;;5052850;28;20110;-81
2022/01/21 14:09:28;;;;;;;9.35;2.63;;;7.90;99.90;;;;;;5052461;28;20071;-81
2022/01/21 14:11:54;;;;;;;12.30;3.45;;;8.00;99.90;;;;;;5051079;28;20021;-81
2022/01/21 14:14:24;;;;;;;15.40;3.33;;;8.00;99.90;;;;;;5047579;28;20099;-81
2022/01/21 14:16:56;;;;;;;11.10;1.98;;;8.00;99.90;;;;;;5052338;28;20362;-81
2022/01/21 14:19:23;;;;;;;7.78;1.45;;;8.10;99.90;;;;;;5052049;28;20112;-81